createdAt,value
2018-01-22T00:02:16.455Z,88.42
2018-01-22T00:04:44.780Z,88.45
2018-01-22T00:07:13.913Z,88.44
2018-01-22T00:09:42.391Z,88.47
2018-01-22T00:12:10.726Z,88.46
2018-01-22T00:14:39.220Z,88.50
2018-01-22T00:17:07.614Z,88.60
2018-01-22T00:19:36.136Z,88.51
2018-01-22T00:22:04.489Z,88.65
2018-01-22T00:24:33.250Z,88.59
2018-01-22T00:27:01.574Z,88.59
2018-01-22T00:29:29.862Z,88.47
2018-01-22T00:31:58.152Z,88.63
2018-01-22T00:34:26.524Z,88.62
2018-01-22T00:36:54.862Z,88.78
2018-01-22T00:39:23.156Z,88.83
2018-01-22T00:41:51.514Z,88.70
2018-01-22T00:44:20.640Z,88.71
2018-01-22T00:46:48.922Z,88.79
2018-01-22T00:49:17.246Z,88.80
2018-01-22T00:51:46.338Z,88.88
2018-01-22T00:54:14.626Z,88.78
2018-01-22T00:56:42.926Z,88.78
2018-01-22T00:59:11.892Z,88.78
2018-01-22T01:01:40.257Z,88.86
2018-01-22T01:04:08.580Z,88.84
2018-01-22T01:06:38.090Z,88.87
2018-01-22T01:09:07.196Z,88.91
2018-01-22T01:11:35.600Z,88.95
2018-01-22T01:14:03.908Z,88.91
2018-01-22T01:16:32.196Z,88.93
2018-01-22T01:19:00.494Z,88.93
2018-01-22T01:21:28.802Z,89.02
2018-01-22T01:23:57.868Z,88.91
2018-01-22T01:26:26.178Z,88.96
2018-01-22T01:28:54.484Z,88.96
2018-01-22T01:31:22.808Z,88.99
2018-01-22T01:33:51.130Z,88.94
2018-01-22T01:36:20.202Z,88.90
2018-01-22T01:38:48.527Z,88.86
2018-01-22T01:41:16.877Z,88.81
2018-01-22T01:43:45.204Z,88.87
2018-01-22T01:46:13.494Z,88.85
2018-01-22T01:49:08.590Z,88.78
2018-01-22T01:51:36.896Z,88.76
2018-01-22T01:54:05.271Z,88.69
2018-01-22T01:56:33.548Z,88.71
2018-01-22T01:59:01.862Z,88.70
2018-01-22T02:01:30.919Z,88.66
2018-01-22T02:03:59.954Z,88.68
2018-01-22T02:06:28.256Z,88.67
2018-01-22T02:08:56.558Z,88.59
2018-01-22T02:11:24.873Z,88.67
2018-01-22T02:13:53.194Z,88.77
2018-01-22T02:16:22.292Z,88.70
2018-01-22T02:18:51.350Z,88.72
2018-01-22T02:21:19.642Z,88.67
2018-01-22T02:23:47.946Z,88.73
2018-01-22T02:26:17.086Z,88.78
2018-01-22T02:28:45.382Z,88.86
2018-01-22T02:31:13.677Z,88.87
2018-01-22T02:33:41.967Z,88.94
2018-01-22T02:36:10.256Z,88.94
2018-01-22T02:38:38.564Z,88.86
2018-01-22T02:41:07.693Z,88.79
2018-01-22T02:43:36.079Z,88.82
2018-01-22T02:46:04.366Z,88.78
2018-01-22T02:48:32.665Z,88.85
2018-01-22T02:51:01.567Z,88.83
2018-01-22T02:53:29.877Z,88.81
2018-01-22T02:55:58.988Z,88.81
2018-01-22T02:58:28.086Z,88.85
2018-01-22T03:00:57.176Z,88.79
2018-01-22T03:03:26.350Z,88.71
2018-01-22T03:05:54.669Z,88.73
2018-01-22T03:08:23.724Z,88.72
2018-01-22T03:10:53.486Z,88.77
2018-01-22T03:13:21.784Z,88.72
2018-01-22T03:15:50.879Z,88.74
2018-01-22T03:18:19.213Z,88.76
2018-01-22T03:20:47.542Z,88.60
2018-01-22T03:23:15.867Z,88.81
2018-01-22T03:25:44.164Z,88.77
2018-01-22T03:28:12.495Z,88.86
2018-01-22T03:30:40.807Z,88.92
2018-01-22T03:33:09.394Z,88.97
2018-01-22T03:35:37.704Z,88.79
2018-01-22T03:38:06.122Z,89.07
2018-01-22T03:40:34.420Z,89.17
2018-01-22T03:43:03.520Z,89.04
2018-01-22T03:45:31.830Z,89.13
2018-01-22T03:48:00.177Z,89.25
2018-01-22T03:50:28.513Z,89.04
2018-01-22T03:52:56.882Z,89.29
2018-01-22T03:55:25.196Z,89.36
2018-01-22T03:57:53.572Z,89.40
2018-01-22T04:00:22.630Z,89.46
2018-01-22T04:02:50.946Z,89.52
2018-01-22T04:05:20.032Z,89.50
2018-01-22T04:07:48.348Z,89.64
2018-01-22T04:10:16.650Z,89.64
2018-01-22T04:12:44.966Z,89.59
2018-01-22T04:15:13.618Z,89.69
2018-01-22T04:17:41.910Z,89.63
2018-01-22T04:20:10.212Z,89.64
2018-01-22T04:22:38.516Z,89.73
2018-01-22T04:25:06.838Z,89.70
2018-01-22T04:27:35.143Z,89.70
2018-01-22T04:30:03.470Z,89.64
2018-01-22T04:32:31.796Z,89.59
2018-01-22T04:35:00.106Z,89.69
2018-01-22T04:37:28.464Z,89.54
2018-01-22T04:39:57.596Z,89.48
2018-01-22T04:42:25.892Z,89.60
2018-01-22T04:44:54.203Z,89.49
2018-01-22T04:47:22.514Z,89.62
2018-01-22T04:49:50.870Z,89.73
2018-01-22T04:52:19.195Z,89.71
2018-01-22T04:54:47.544Z,89.64
2018-01-22T04:57:16.627Z,89.72
2018-01-22T04:59:44.932Z,89.59
2018-01-22T05:02:13.278Z,89.66
2018-01-22T05:04:42.400Z,89.59
2018-01-22T05:07:10.724Z,89.66
2018-01-22T05:09:39.804Z,89.68
2018-01-22T05:12:08.111Z,89.72
2018-01-22T05:14:36.424Z,89.70
2018-01-22T05:17:05.566Z,89.83
2018-01-22T05:19:33.922Z,89.78
2018-01-22T05:22:02.234Z,89.74
2018-01-22T05:24:31.085Z,89.68
2018-01-22T05:27:00.191Z,89.72
2018-01-22T05:29:28.526Z,89.75
2018-01-22T05:31:56.885Z,89.74
2018-01-22T05:34:25.459Z,89.79
2018-01-22T05:36:53.746Z,89.81
2018-01-22T05:39:22.130Z,89.83
2018-01-22T05:41:50.947Z,89.88
2018-01-22T05:44:19.238Z,89.92
2018-01-22T05:46:47.557Z,90.00
2018-01-22T05:49:17.486Z,89.95
2018-01-22T05:51:46.144Z,90.01
2018-01-22T05:54:14.438Z,90.10
2018-01-22T05:56:44.135Z,90.14
2018-01-22T05:59:12.448Z,90.15
2018-01-22T06:01:40.810Z,90.18
2018-01-22T06:04:09.964Z,90.18
2018-01-22T06:06:38.266Z,90.20
2018-01-22T06:09:06.600Z,90.21
2018-01-22T06:11:35.867Z,90.26
2018-01-22T06:14:04.186Z,90.25
2018-01-22T06:16:32.487Z,90.26
2018-01-22T06:19:01.042Z,90.20
2018-01-22T06:21:29.357Z,90.18
2018-01-22T06:23:57.722Z,90.16
2018-01-22T06:26:26.055Z,90.16
2018-01-22T06:28:54.424Z,90.07
2018-01-22T06:31:22.733Z,89.99
2018-01-22T06:33:51.064Z,89.96
2018-01-22T06:36:19.363Z,89.84
2018-01-22T06:38:47.676Z,89.77
2018-01-22T06:41:15.990Z,89.66
2018-01-22T06:43:45.250Z,89.61
2018-01-22T06:46:13.594Z,89.50
2018-01-22T06:48:42.508Z,89.37
2018-01-22T06:51:10.853Z,89.31
2018-01-22T06:53:39.167Z,89.14
2018-01-22T06:56:07.713Z,88.99
2018-01-22T06:58:36.790Z,88.82
2018-01-22T07:01:05.937Z,88.59
2018-01-22T07:03:34.479Z,88.49
2018-01-22T07:06:03.558Z,88.52
2018-01-22T07:08:31.879Z,88.34
2018-01-22T07:11:01.031Z,88.24
2018-01-22T07:13:29.327Z,88.09
2018-01-22T07:15:57.631Z,87.80
2018-01-22T07:18:27.269Z,87.78
2018-01-22T07:20:55.590Z,87.74
2018-01-22T07:23:23.895Z,87.57
2018-01-22T07:25:53.001Z,87.46
2018-01-22T07:28:21.382Z,86.98
2018-01-22T07:30:49.633Z,86.75
2018-01-22T07:33:17.932Z,86.70
2018-01-22T07:35:46.811Z,86.57
2018-01-22T07:38:15.196Z,86.38
2018-01-22T07:40:43.539Z,86.15
2018-01-22T07:43:11.903Z,85.86
2018-01-22T07:45:40.254Z,85.80
2018-01-22T07:48:08.592Z,85.69
2018-01-22T07:50:36.971Z,85.60
2018-01-22T07:53:05.764Z,85.32
2018-01-22T07:55:34.289Z,85.23
2018-01-22T07:58:03.016Z,85.10
2018-01-22T08:00:31.345Z,85.11
2018-01-22T08:02:59.725Z,84.69
2018-01-22T08:05:28.633Z,84.71
2018-01-22T08:07:57.713Z,84.62
2018-01-22T08:10:26.020Z,84.46
2018-01-22T08:12:56.070Z,84.24
2018-01-22T08:15:24.769Z,84.08
2018-01-22T08:17:54.198Z,83.92
2018-01-22T08:20:23.264Z,83.84
2018-01-22T08:22:51.549Z,83.68
2018-01-22T08:25:21.814Z,83.62
2018-01-22T08:27:50.495Z,83.56
2018-01-22T08:30:19.511Z,83.41
2018-01-22T08:32:48.559Z,83.28
2018-01-22T08:35:17.551Z,83.18
2018-01-22T08:37:46.291Z,83.08
2018-01-22T08:40:14.737Z,82.89
2018-01-22T08:42:43.885Z,82.76
2018-01-22T08:45:12.218Z,82.75
2018-01-22T08:47:41.282Z,82.64
2018-01-22T08:50:09.661Z,82.62
2018-01-22T08:52:37.985Z,82.54
2018-01-22T08:55:07.084Z,82.21
2018-01-22T08:57:36.162Z,82.01
2018-01-22T09:00:04.563Z,81.54
2018-01-22T09:02:33.629Z,81.28
2018-01-22T09:05:02.151Z,81.03
2018-01-22T09:07:31.221Z,80.92
2018-01-22T09:09:59.561Z,80.76
2018-01-22T09:12:27.881Z,80.67
2018-01-22T09:14:56.331Z,80.60
2018-01-22T09:17:25.264Z,80.53
2018-01-22T09:19:53.592Z,80.54
2018-01-22T09:22:24.033Z,80.42
2018-01-22T09:24:52.361Z,80.36
2018-01-22T09:27:20.653Z,80.34
2018-01-22T09:29:49.307Z,80.35
2018-01-22T09:32:17.663Z,80.25
2018-01-22T09:34:47.111Z,80.11
2018-01-22T09:37:15.487Z,80.14
2018-01-22T09:39:44.531Z,80.04
2018-01-22T09:42:15.021Z,80.18
2018-01-22T09:44:43.479Z,80.14
2018-01-22T09:47:13.264Z,80.20
2018-01-22T09:49:42.333Z,80.01
2018-01-22T09:52:12.242Z,79.93
2018-01-22T09:54:41.641Z,79.81
2018-01-22T09:57:09.978Z,79.86
2018-01-22T10:02:14.965Z,79.25
2018-01-22T10:04:45.080Z,79.01
2018-01-22T10:07:14.307Z,78.76
2018-01-22T10:09:44.189Z,78.57
2018-01-22T10:12:13.545Z,78.42
2018-01-22T10:14:42.660Z,78.35
2018-01-22T10:17:11.812Z,78.11
2018-01-22T10:19:40.250Z,77.79
2018-01-22T10:22:09.345Z,77.67
2018-01-22T10:24:37.752Z,77.46
2018-01-22T10:27:08.736Z,77.27
2018-01-22T10:29:37.061Z,77.11
2018-01-22T10:32:06.398Z,77.10
2018-01-22T10:34:34.801Z,76.85
2018-01-22T10:37:04.565Z,76.57
2018-01-22T10:39:33.709Z,76.39
2018-01-22T10:42:02.942Z,76.36
2018-01-22T10:44:31.390Z,76.20
2018-01-22T10:46:59.739Z,75.95
2018-01-22T10:49:29.275Z,75.80
2018-01-22T10:51:57.655Z,75.65
2018-01-22T10:54:25.993Z,75.32
2018-01-22T10:56:55.097Z,75.05
2018-01-22T10:59:23.482Z,74.88
2018-01-22T11:01:51.849Z,74.44
2018-01-22T11:04:20.161Z,74.12
2018-01-22T11:06:49.689Z,74.02
2018-01-22T11:09:18.016Z,73.50
2018-01-22T11:11:46.457Z,73.36
2018-01-22T11:14:14.941Z,73.59
2018-01-22T11:16:43.387Z,73.64
2018-01-22T11:19:13.393Z,73.55
2018-01-22T11:21:41.770Z,73.51
2018-01-22T11:24:10.117Z,73.38
2018-01-22T11:26:39.301Z,73.21
2018-01-22T11:29:08.113Z,73.20
2018-01-22T11:31:36.435Z,73.15
2018-01-22T11:34:04.773Z,73.15
2018-01-22T11:36:33.262Z,73.33
2018-01-22T11:39:01.592Z,73.54
2018-01-22T11:41:31.497Z,73.21
2018-01-22T11:44:01.549Z,73.03
2018-01-22T11:46:32.991Z,72.98
2018-01-22T11:49:01.613Z,72.82
2018-01-22T11:51:30.005Z,72.77
2018-01-22T11:53:59.118Z,72.71
2018-01-22T11:56:28.399Z,72.33
2018-01-22T11:58:56.740Z,72.31
2018-01-22T12:01:25.086Z,72.41
2018-01-22T12:03:53.700Z,72.38
2018-01-22T12:06:22.334Z,72.17
2018-01-22T12:08:53.496Z,72.16
2018-01-22T12:11:22.261Z,71.96
2018-01-22T12:13:51.386Z,72.00
2018-01-22T12:16:20.445Z,71.82
2018-01-22T12:18:49.585Z,71.75
2018-01-22T12:21:17.948Z,71.52
2018-01-22T12:23:48.014Z,71.46
2018-01-22T12:26:17.124Z,71.09
2018-01-22T12:28:46.973Z,71.19
2018-01-22T12:31:16.024Z,71.24
2018-01-22T12:33:44.358Z,71.34
2018-01-22T12:36:12.751Z,71.42
2018-01-22T12:38:41.085Z,71.41
2018-01-22T12:41:10.274Z,71.35
2018-01-22T12:43:38.683Z,71.26
2018-01-22T12:46:07.752Z,71.00
2018-01-22T12:48:36.076Z,70.97
2018-01-22T12:51:04.440Z,70.89
2018-01-22T12:53:32.758Z,70.88
2018-01-22T12:56:01.884Z,70.74
2018-01-22T12:58:30.206Z,70.88
2018-01-22T13:00:59.355Z,70.78
2018-01-22T13:03:27.688Z,70.88
2018-01-22T13:05:56.037Z,70.96
2018-01-22T13:08:24.422Z,70.83
2018-01-22T13:10:52.758Z,70.62
2018-01-22T13:13:21.092Z,70.83
2018-01-22T13:15:49.456Z,70.77
2018-01-22T13:18:17.978Z,70.78
2018-01-22T13:20:46.302Z,70.72
2018-01-22T13:23:15.392Z,70.69
2018-01-22T13:25:43.812Z,70.89
2018-01-22T13:28:12.140Z,70.88
2018-01-22T13:30:40.786Z,70.84
2018-01-22T13:33:09.096Z,70.91
2018-01-22T13:35:37.406Z,70.93
2018-01-22T13:38:06.377Z,71.15
2018-01-22T13:40:40.943Z,71.25
2018-01-22T13:43:09.271Z,71.09
2018-01-22T13:45:38.396Z,71.23
2018-01-22T13:48:06.955Z,71.21
2018-01-22T13:50:35.314Z,71.23
2018-01-22T13:53:03.738Z,71.20
2018-01-22T13:55:32.078Z,71.33
2018-01-22T13:58:01.251Z,71.51
2018-01-22T14:00:31.955Z,71.31
2018-01-22T14:03:00.260Z,71.31
2018-01-22T14:05:29.042Z,71.51
2018-01-22T14:07:57.662Z,71.64
2018-01-22T14:10:26.744Z,71.64
2018-01-22T14:12:55.066Z,71.64
2018-01-22T14:15:23.718Z,71.71
2018-01-22T14:17:52.102Z,71.88
2018-01-22T14:20:21.240Z,71.84
2018-01-22T14:22:49.574Z,71.99
2018-01-22T14:25:17.902Z,72.06
2018-01-22T14:27:46.230Z,72.23
2018-01-22T14:30:14.530Z,72.41
2018-01-22T14:32:46.191Z,72.46
2018-01-22T14:35:17.037Z,72.52
2018-01-22T14:37:46.096Z,72.62
2018-01-22T14:40:14.418Z,72.80
2018-01-22T14:42:43.482Z,72.97
2018-01-22T14:45:12.133Z,73.11
2018-01-22T14:47:40.450Z,73.15
2018-01-22T14:50:09.517Z,73.26
2018-01-22T14:52:38.031Z,73.42
2018-01-22T14:55:06.366Z,73.48
2018-01-22T14:57:35.862Z,73.39
2018-01-22T15:00:04.932Z,73.58
2018-01-22T15:02:33.590Z,73.73
2018-01-22T15:05:01.940Z,73.80
2018-01-22T15:07:30.280Z,74.03
2018-01-22T15:09:58.607Z,74.13
2018-01-22T15:12:27.682Z,74.23
2018-01-22T15:14:56.164Z,74.36
2018-01-22T15:17:24.626Z,74.50
2018-01-22T15:19:53.838Z,74.58
2018-01-22T15:22:23.606Z,74.72
2018-01-22T15:24:52.036Z,74.71
2018-01-22T15:27:21.115Z,74.78
2018-01-22T15:29:50.312Z,74.85
2018-01-22T15:32:18.615Z,75.04
2018-01-22T15:34:46.970Z,75.13
2018-01-22T15:37:15.280Z,75.15
2018-01-22T15:39:43.734Z,75.24
2018-01-22T15:42:12.413Z,75.41
2018-01-22T15:44:41.674Z,75.51
2018-01-22T15:47:10.023Z,75.54
2018-01-22T15:49:38.408Z,75.58
2018-01-22T15:52:07.594Z,75.71
2018-01-22T15:54:36.168Z,75.83
2018-01-22T15:57:05.778Z,75.99
2018-01-22T15:59:34.209Z,76.10
2018-01-22T16:02:02.728Z,76.22
2018-01-22T16:04:31.822Z,76.45
2018-01-22T16:07:00.123Z,76.67
2018-01-22T16:09:29.744Z,76.80
2018-01-22T16:11:58.318Z,76.97
2018-01-22T16:14:27.403Z,76.99
2018-01-22T16:16:55.722Z,77.02
2018-01-22T16:19:24.033Z,77.11
2018-01-22T16:21:53.308Z,77.22
2018-01-22T16:24:21.624Z,77.39
2018-01-22T16:26:49.947Z,77.51
2018-01-22T16:29:19.043Z,77.65
2018-01-22T16:31:48.930Z,77.70
2018-01-22T16:34:17.330Z,77.75
2018-01-22T16:36:46.060Z,77.86
2018-01-22T16:39:14.410Z,77.89
2018-01-22T16:41:43.543Z,77.93
2018-01-22T16:44:12.240Z,77.94
2018-01-22T16:46:41.026Z,77.92
2018-01-22T16:49:10.070Z,77.94
2018-01-22T16:51:38.814Z,77.94
2018-01-22T16:54:07.122Z,78.05
2018-01-22T16:56:35.436Z,78.02
2018-01-22T16:59:03.758Z,78.05
2018-01-22T17:01:32.152Z,78.08
2018-01-22T17:04:00.444Z,78.22
2018-01-22T17:06:28.752Z,78.07
2018-01-22T17:08:57.076Z,77.77
2018-01-22T17:11:25.393Z,77.75
2018-01-22T17:13:53.684Z,77.61
2018-01-22T17:16:22.031Z,77.46
2018-01-22T17:18:50.332Z,77.39
2018-01-22T17:21:18.634Z,77.32
2018-01-22T17:23:47.029Z,77.29
2018-01-22T17:26:15.560Z,77.00
2018-01-22T17:28:43.869Z,77.00
2018-01-22T17:31:12.270Z,77.19
2018-01-22T17:33:40.745Z,77.34
2018-01-22T17:36:09.039Z,77.50
2018-01-22T17:38:37.530Z,77.69
2018-01-22T17:41:06.070Z,77.85
2018-01-22T17:43:37.611Z,78.01
2018-01-22T17:46:06.691Z,78.21
2018-01-22T17:48:35.888Z,78.18
2018-01-22T17:51:05.026Z,78.20
2018-01-22T17:53:33.372Z,78.31
2018-01-22T17:56:02.566Z,78.38
2018-01-22T17:58:31.657Z,78.70
2018-01-22T18:01:00.370Z,78.84
2018-01-22T18:03:29.816Z,78.90
2018-01-22T18:05:59.962Z,79.04
2018-01-22T18:08:29.987Z,78.68
2018-01-22T18:10:58.379Z,78.48
2018-01-22T18:13:26.840Z,78.30
2018-01-22T18:15:55.171Z,78.31
2018-01-22T18:18:23.537Z,78.30
2018-01-22T18:20:51.907Z,78.26
2018-01-22T18:23:21.502Z,78.28
2018-01-22T18:25:49.834Z,78.18
2018-01-22T18:28:18.939Z,78.16
2018-01-22T18:30:48.047Z,78.05
2018-01-22T18:33:16.382Z,78.03
2018-01-22T18:35:45.543Z,78.06
2018-01-22T18:38:13.893Z,78.03
2018-01-22T18:40:43.030Z,78.25
2018-01-22T18:43:11.413Z,78.14
2018-01-22T18:45:39.834Z,78.09
2018-01-22T18:48:09.040Z,78.12
2018-01-22T18:50:37.375Z,78.14
2018-01-22T18:53:05.705Z,78.13
2018-01-22T18:55:34.824Z,78.22
2018-01-22T18:58:03.141Z,78.44
2018-01-22T19:00:31.550Z,78.38
2018-01-22T19:03:01.537Z,78.44
2018-01-22T19:05:29.850Z,78.56
2018-01-22T19:07:58.242Z,78.71
2018-01-22T19:10:26.599Z,78.66
2018-01-22T19:12:55.005Z,78.60
2018-01-22T19:15:23.332Z,78.48
2018-01-22T19:17:52.441Z,78.45
2018-01-22T19:20:21.515Z,78.45
2018-01-22T19:22:49.860Z,78.42
2018-01-22T19:25:18.182Z,78.33
2018-01-22T19:27:47.275Z,78.20
2018-01-22T19:30:15.667Z,78.10
2018-01-22T19:32:44.293Z,78.29
2018-01-22T19:35:12.625Z,78.15
2018-01-22T19:37:40.942Z,78.04
2018-01-22T19:40:10.290Z,77.92
2018-01-22T19:42:38.595Z,77.79
2018-01-22T19:45:09.357Z,78.04
2018-01-22T19:47:37.708Z,78.11
2018-01-22T19:50:06.041Z,78.19
2018-01-22T19:52:34.423Z,78.20
2018-01-22T19:55:02.734Z,78.11
2018-01-22T19:57:31.819Z,78.02
2018-01-22T20:00:00.134Z,77.90
2018-01-22T20:02:28.478Z,77.79
2018-01-22T20:04:57.623Z,77.66
2018-01-22T20:07:25.986Z,77.56
2018-01-22T20:09:54.375Z,77.49
2018-01-22T20:12:22.684Z,77.35
2018-01-22T20:14:50.993Z,77.26
2018-01-22T20:17:19.312Z,77.18
2018-01-22T20:19:47.598Z,77.16
2018-01-22T20:22:15.905Z,77.11
2018-01-22T20:24:44.992Z,77.13
2018-01-22T20:27:13.281Z,77.04
2018-01-22T20:29:41.578Z,76.95
2018-01-22T20:32:10.677Z,77.02
2018-01-22T20:34:39.804Z,77.00
2018-01-22T20:37:08.103Z,76.93
2018-01-22T20:39:36.402Z,76.87
2018-01-22T20:42:04.709Z,76.86
2018-01-22T20:44:33.795Z,76.83
2018-01-22T20:47:02.107Z,76.74
2018-01-22T20:49:31.186Z,76.62
2018-01-22T20:51:59.496Z,76.72
2018-01-22T20:54:28.169Z,76.71
2018-01-22T20:56:56.486Z,76.67
2018-01-22T20:59:24.781Z,76.72
2018-01-22T21:01:53.084Z,76.81
2018-01-22T21:04:21.381Z,76.81
2018-01-22T21:06:49.673Z,76.81
2018-01-22T21:09:17.963Z,76.84
2018-01-22T21:11:47.061Z,76.91
2018-01-22T21:14:16.111Z,76.98
2018-01-22T21:16:44.416Z,77.08
2018-01-22T21:19:12.731Z,77.06
2018-01-22T21:21:41.782Z,77.12
2018-01-22T21:24:10.103Z,77.23
2018-01-22T21:26:39.157Z,77.24
2018-01-22T21:29:07.489Z,77.26
2018-01-22T21:31:36.539Z,77.31
2018-01-22T21:34:04.893Z,77.32
2018-01-22T21:36:33.375Z,77.60
2018-01-22T21:39:01.681Z,77.56
2018-01-22T21:41:31.061Z,77.61
2018-01-22T21:43:59.433Z,77.63
2018-01-22T21:46:28.489Z,77.66
2018-01-22T21:48:56.791Z,77.65
2018-01-22T21:51:25.092Z,77.78
2018-01-22T21:53:54.207Z,77.76
2018-01-22T21:56:22.519Z,77.72
2018-01-22T21:58:50.835Z,77.70
2018-01-22T22:01:19.155Z,77.68
2018-01-22T22:03:47.469Z,77.56
2018-01-22T22:06:15.761Z,77.39
2018-01-22T22:08:45.566Z,77.56
2018-01-22T22:11:14.305Z,77.50
2018-01-22T22:13:43.383Z,77.38
2018-01-22T22:16:11.739Z,77.39
2018-01-22T22:18:40.053Z,77.26
2018-01-22T22:21:08.357Z,77.14
2018-01-22T22:23:36.666Z,77.06
2018-01-22T22:26:05.031Z,77.05
2018-01-22T22:28:33.342Z,77.00
2018-01-22T22:31:01.640Z,76.99
2018-01-22T22:33:29.955Z,77.01
2018-01-22T22:35:59.077Z,76.89
2018-01-22T22:38:28.317Z,76.93
2018-01-22T22:40:56.631Z,77.05
2018-01-22T22:43:25.753Z,77.21
2018-01-22T22:45:54.123Z,77.32
2018-01-22T22:48:23.184Z,77.38
2018-01-22T22:50:51.485Z,77.43
2018-01-22T22:53:19.785Z,77.50
2018-01-22T22:55:48.941Z,77.59
2018-01-22T22:58:17.250Z,77.62
2018-01-22T23:00:45.556Z,77.64
2018-01-22T23:03:14.666Z,77.63
2018-01-22T23:05:43.051Z,77.59
2018-01-22T23:08:11.363Z,77.69
2018-01-22T23:10:39.673Z,77.78
2018-01-22T23:13:07.970Z,77.82
2018-01-22T23:15:37.770Z,77.82
2018-01-22T23:18:06.140Z,77.88
2018-01-22T23:20:35.090Z,77.97
2018-01-22T23:23:03.384Z,78.08
2018-01-22T23:25:31.678Z,78.12
2018-01-22T23:27:59.977Z,78.13
2018-01-22T23:30:28.455Z,78.19
2018-01-22T23:32:57.786Z,78.26
2018-01-22T23:35:26.088Z,78.24
2018-01-22T23:37:55.549Z,78.24
2018-01-22T23:40:23.860Z,78.19
2018-01-22T23:42:52.932Z,78.19
2018-01-22T23:45:21.604Z,78.09
2018-01-22T23:47:49.906Z,78.08
2018-01-22T23:50:18.210Z,78.10
2018-01-22T23:52:47.279Z,78.05
2018-01-22T23:55:16.428Z,77.91
2018-01-22T23:57:45.544Z,77.87
